Time;durP1;ratioP1;P1;durP2;ratioP2;P2;SDS_P1;SDS_P2;PMS_P1;PMS_P2;Temp;Humidity;BMP_temperature;BMP_pressure;BME280_temperature;BME280_humidity;BME280_pressure;Samples;Min_cycle;Max_cycle;Signal;HPM_P1;HPM_P2
2022/03/29 00:02:10;;;;;;;17.70;11.07;;;10.50;99.90;;;;;;6093005;23;20027;-85
2022/03/29 00:05:02;;;;;;;16.50;10.57;;;10.40;99.90;;;;;;6091575;23;20060;-86
2022/03/29 00:07:51;;;;;;;17.83;10.48;;;10.40;99.90;;;;;;6092487;23;20027;-85
2022/03/29 00:10:42;;;;;;;19.17;11.48;;;10.40;99.90;;;;;;6092412;23;20022;-87
2022/03/29 00:13:31;;;;;;;20.52;10.35;;;10.40;99.90;;;;;;6092705;23;20026;-85
2022/03/29 00:16:19;;;;;;;24.30;11.05;;;10.30;99.90;;;;;;6072323;23;20033;-88
2022/03/29 00:19:11;;;;;;;23.42;10.68;;;10.30;99.90;;;;;;6092853;23;20026;-86
2022/03/29 00:21:59;;;;;;;21.15;11.50;;;10.20;99.90;;;;;;6092389;23;20082;-86
2022/03/29 00:24:46;;;;;;;24.35;12.43;;;10.20;99.90;;;;;;6092602;23;20324;-86
2022/03/29 00:27:37;;;;;;;23.33;11.82;;;10.10;99.90;;;;;;6092575;23;20414;-85
2022/03/29 00:30:24;;;;;;;20.98;12.07;;;10.10;99.90;;;;;;6071957;23;20024;-85
2022/03/29 00:33:12;;;;;;;20.48;11.63;;;10.00;99.90;;;;;;6091948;23;20367;-86
2022/03/29 00:35:59;;;;;;;28.10;11.40;;;9.90;99.90;;;;;;6092634;23;20027;-85
2022/03/29 00:38:48;;;;;;;24.02;12.13;;;9.90;99.90;;;;;;6091827;23;20030;-84
2022/03/29 00:41:38;;;;;;;20.30;11.48;;;9.90;99.90;;;;;;6071382;23;20112;-85
2022/03/29 00:44:32;;;;;;;21.05;11.23;;;9.80;99.90;;;;;;6093185;23;20026;-84
2022/03/29 00:47:19;;;;;;;20.65;11.23;;;9.80;99.90;;;;;;6091478;23;20022;-83
2022/03/29 00:50:07;;;;;;;21.98;11.88;;;9.80;99.90;;;;;;6091337;23;20030;-86
2022/03/29 00:52:55;;;;;;;21.88;12.13;;;9.80;99.90;;;;;;6071211;23;20034;-86
2022/03/29 00:55:43;;;;;;;22.77;11.77;;;9.90;99.90;;;;;;6071601;23;20102;-85
2022/03/29 00:58:34;;;;;;;21.05;11.85;;;10.00;99.90;;;;;;6096699;23;20026;-86
2022/03/29 01:01:21;;;;;;;22.25;11.55;;;9.90;99.90;;;;;;6105850;23;20033;-85
2022/03/29 01:04:11;;;;;;;22.27;11.40;;;9.80;99.90;;;;;;6081433;23;20022;-85
2022/03/29 01:07:01;;;;;;;24.73;12.18;;;9.80;99.90;;;;;;6091771;23;20169;-85
2022/03/29 01:09:49;;;;;;;20.80;11.90;;;9.90;99.90;;;;;;6091780;23;20027;-85
2022/03/29 01:12:38;;;;;;;19.42;11.45;;;9.90;99.90;;;;;;6071886;23;20030;-85
2022/03/29 01:15:26;;;;;;;21.42;11.60;;;9.90;99.90;;;;;;6072319;23;20074;-84
2022/03/29 01:18:18;;;;;;;25.90;11.38;;;10.00;99.90;;;;;;6093049;23;20022;-87
2022/03/29 01:21:06;;;;;;;21.13;11.82;;;10.10;99.90;;;;;;6091040;23;20053;-85
2022/03/29 01:23:54;;;;;;;23.15;11.60;;;10.20;99.90;;;;;;6089174;23;20131;-86
2022/03/29 01:26:44;;;;;;;19.75;10.93;;;10.10;99.90;;;;;;6087747;23;20185;-85
2022/03/29 01:29:36;;;;;;;22.00;11.30;;;10.10;99.90;;;;;;6089549;23;20122;-85
2022/03/29 01:32:27;;;;;;;20.10;11.50;;;10.00;99.90;;;;;;6091433;23;20046;-84
2022/03/29 01:35:18;;;;;;;20.13;10.82;;;10.00;99.90;;;;;;6071783;23;20023;-86
2022/03/29 01:38:06;;;;;;;20.65;11.73;;;10.00;99.90;;;;;;6052364;23;20138;-85
2022/03/29 01:41:01;;;;;;;18.00;11.57;;;9.90;99.90;;;;;;6091758;23;20088;-86
2022/03/29 01:43:48;;;;;;;24.00;11.25;;;9.90;99.90;;;;;;6090632;23;20037;-86
2022/03/29 01:46:38;;;;;;;18.98;11.35;;;9.90;99.90;;;;;;6092608;23;20062;-85
2022/03/29 01:49:28;;;;;;;19.33;11.35;;;9.90;99.90;;;;;;6069683;23;20036;-85
2022/03/29 01:52:15;;;;;;;22.23;11.70;;;9.80;99.90;;;;;;6091902;23;20023;-85
2022/03/29 01:55:02;;;;;;;25.77;10.95;;;9.80;99.90;;;;;;6092236;23;20023;-86
2022/03/29 01:57:53;;;;;;;21.60;11.48;;;9.80;99.90;;;;;;6091915;23;20314;-85
2022/03/29 02:00:41;;;;;;;20.70;11.05;;;9.70;99.90;;;;;;6071275;23;20026;-86
2022/03/29 02:03:31;;;;;;;19.38;11.50;;;9.70;99.90;;;;;;6091793;23;20213;-85
2022/03/29 02:06:18;;;;;;;18.98;10.98;;;9.60;99.90;;;;;;6091714;23;20037;-86
2022/03/29 02:09:07;;;;;;;21.15;11.75;;;9.60;99.90;;;;;;6070567;23;20037;-84
2022/03/29 02:11:57;;;;;;;22.33;11.38;;;9.50;99.90;;;;;;6091228;23;20033;-83
2022/03/29 02:14:49;;;;;;;19.35;9.77;;;9.50;99.90;;;;;;6103365;23;20037;-84
2022/03/29 02:17:36;;;;;;;18.30;11.60;;;9.30;99.90;;;;;;6106155;23;20092;-86
2022/03/29 02:20:33;;;;;;;20.27;11.73;;;9.20;99.90;;;;;;6109016;22;20034;-84
2022/03/29 02:23:23;;;;;;;19.83;11.05;;;9.00;99.90;;;;;;6092216;23;20018;-82
2022/03/29 02:26:12;;;;;;;19.60;10.95;;;8.90;99.90;;;;;;6115541;23;20023;-81
2022/03/29 02:28:59;;;;;;;18.02;11.63;;;8.80;99.90;;;;;;6114325;22;20014;-82
2022/03/29 02:31:47;;;;;;;18.52;11.27;;;8.90;99.90;;;;;;6094494;22;20125;-82
2022/03/29 02:34:34;;;;;;;18.80;11.57;;;8.80;99.90;;;;;;6116543;22;20049;-82
2022/03/29 02:37:21;;;;;;;22.40;12.40;;;8.80;99.90;;;;;;6116695;22;20011;-84
2022/03/29 02:40:24;;;;;;;21.98;11.88;;;8.70;99.90;;;;;;6112724;23;20037;-86
2022/03/29 02:43:11;;;;;;;27.25;11.60;;;8.70;99.90;;;;;;6112007;23;20073;-84
2022/03/29 02:45:58;;;;;;;23.80;12.45;;;8.70;99.90;;;;;;6116524;22;20015;-83
2022/03/29 02:48:45;;;;;;;24.27;12.02;;;8.70;99.90;;;;;;6114960;22;20015;-84
2022/03/29 02:51:32;;;;;;;22.02;12.73;;;9.00;99.90;;;;;;6113954;23;20036;-86
2022/03/29 02:54:20;;;;;;;23.00;11.85;;;9.10;99.90;;;;;;6105886;23;20019;-83
2022/03/29 02:57:10;;;;;;;22.40;11.38;;;9.10;99.90;;;;;;6112410;22;20011;-84
2022/03/29 02:59:57;;;;;;;21.00;12.10;;;9.10;99.90;;;;;;6113237;23;20112;-85
2022/03/29 03:02:56;;;;;;;20.58;12.07;;;9.10;99.90;;;;;;6103526;23;20037;-84
2022/03/29 03:05:52;;;;;;;23.10;12.43;;;9.10;99.90;;;;;;6083130;23;20027;-86
2022/03/29 03:08:43;;;;;;;23.50;11.35;;;9.00;99.90;;;;;;6080583;23;20027;-84
2022/03/29 03:11:32;;;;;;;20.30;11.70;;;9.00;99.90;;;;;;6100985;23;20030;-85
2022/03/29 03:14:19;;;;;;;20.42;11.45;;;8.90;99.90;;;;;;6092479;23;20026;-86
2022/03/29 03:17:06;;;;;;;24.33;13.20;;;8.90;99.90;;;;;;6091584;23;20034;-84
2022/03/29 03:20:00;;;;;;;24.83;12.63;;;8.80;99.90;;;;;;6072161;23;20115;-85
2022/03/29 03:22:48;;;;;;;20.77;12.15;;;8.80;99.90;;;;;;6091208;23;20030;-85
2022/03/29 03:25:38;;;;;;;24.50;11.73;;;8.80;99.90;;;;;;6090761;23;20027;-85
2022/03/29 03:28:26;;;;;;;24.85;12.10;;;8.70;99.90;;;;;;6093195;23;20275;-86
2022/03/29 03:31:15;;;;;;;26.02;12.52;;;8.60;99.90;;;;;;6082713;23;20029;-85
2022/03/29 03:34:10;;;;;;;23.65;11.45;;;8.50;99.90;;;;;;6099049;23;20027;-86
2022/03/29 03:37:05;;;;;;;26.27;12.63;;;8.40;99.90;;;;;;6092045;23;20094;-85
2022/03/29 03:39:56;;;;;;;21.17;11.98;;;8.30;99.90;;;;;;6090971;23;20038;-85
2022/03/29 03:42:46;;;;;;;20.83;11.52;;;8.20;99.90;;;;;;6090881;23;20033;-84
2022/03/29 03:45:34;;;;;;;20.92;12.35;;;8.10;99.90;;;;;;6092809;23;20022;-84
2022/03/29 03:48:22;;;;;;;20.98;12.15;;;8.00;99.90;;;;;;6092892;23;20026;-84
2022/03/29 03:51:09;;;;;;;19.88;12.05;;;8.00;99.90;;;;;;6092347;23;20027;-85
2022/03/29 03:53:57;;;;;;;21.30;12.10;;;7.90;99.90;;;;;;6073317;23;20037;-84
2022/03/29 03:56:44;;;;;;;24.42;14.63;;;7.90;99.90;;;;;;6093106;23;20034;-87
2022/03/29 03:59:32;;;;;;;25.10;12.48;;;7.80;99.90;;;;;;6093528;23;20052;-85
2022/03/29 04:02:19;;;;;;;24.27;12.40;;;7.70;99.90;;;;;;6092276;23;20041;-85
2022/03/29 04:05:10;;;;;;;25.15;13.30;;;7.60;99.90;;;;;;6074467;23;20065;-86
2022/03/29 04:07:57;;;;;;;21.30;12.23;;;7.60;99.90;;;;;;6092312;23;20038;-84
2022/03/29 04:10:46;;;;;;;31.58;13.15;;;7.70;99.90;;;;;;6092091;23;20026;-84
2022/03/29 04:13:34;;;;;;;28.38;13.55;;;7.70;1.00;;;;;;6093106;23;20098;-85
2022/03/29 04:16:24;;;;;;;19.45;11.38;;;7.60;99.90;;;;;;6092213;23;20448;-84
2022/03/29 04:19:14;;;;;;;23.13;12.77;;;7.50;99.90;;;;;;6093251;23;20377;-83
2022/03/29 04:22:03;;;;;;;22.85;11.90;;;7.40;1.00;;;;;;6092273;23;20038;-84
2022/03/29 04:24:51;;;;;;;22.75;13.20;;;7.40;1.00;;;;;;6094605;23;20026;-85
2022/03/29 04:27:41;;;;;;;33.47;12.20;;;7.40;1.00;;;;;;6071716;23;20551;-86
2022/03/29 04:30:28;;;;;;;22.55;11.48;;;7.40;1.00;;;;;;6092842;23;20090;-84
2022/03/29 04:33:18;;;;;;;23.25;12.60;;;7.30;1.00;;;;;;6095254;23;20026;-85
2022/03/29 04:40:06;;;;;;;23.90;12.95;;;7.20;99.90;;;;;;6096069;23;20061;-82
2022/03/29 04:43:52;;;;;;;23.55;12.50;;;7.20;99.90;;;;;;6018895;23;20372;-84
2022/03/29 04:46:39;;;;;;;25.75;11.77;;;7.10;7.70;;;;;;6040972;23;20042;-83
2022/03/29 04:49:27;;;;;;;24.70;12.68;;;7.20;99.90;;;;;;6039486;23;20556;-83
2022/03/29 04:52:14;;;;;;;28.55;13.95;;;7.10;93.50;;;;;;6036053;23;20159;-81
2022/03/29 04:55:04;;;;;;;33.78;14.75;;;7.20;94.80;;;;;;6035240;23;20031;-84
2022/03/29 04:57:52;;;;;;;27.67;13.63;;;7.20;42.10;;;;;;6021587;23;20040;-84
2022/03/29 05:00:39;;;;;;;31.15;15.20;;;7.40;1.00;;;;;;6038954;23;20031;-85
2022/03/29 05:03:26;;;;;;;34.72;16.63;;;7.60;1.00;;;;;;6039051;23;20031;-87
2022/03/29 05:06:14;;;;;;;27.95;15.13;;;7.60;24.40;;;;;;6038491;23;20031;-87
2022/03/29 05:09:03;;;;;;;25.98;14.07;;;7.50;43.90;;;;;;6033756;23;20151;-84
2022/03/29 05:11:51;;;;;;;29.38;15.07;;;7.40;94.50;;;;;;6013171;23;20028;-85
2022/03/29 05:14:47;;;;;;;29.17;15.05;;;7.30;99.90;;;;;;6088125;23;20027;-87
2022/03/29 05:17:37;;;;;;;30.60;15.02;;;7.10;1.00;;;;;;6095852;23;20030;-87
2022/03/29 05:20:24;;;;;;;27.20;15.38;;;7.00;1.00;;;;;;6075302;23;20036;-86
2022/03/29 05:23:12;;;;;;;28.95;15.25;;;6.80;1.00;;;;;;6097469;23;20038;-87
2022/03/29 05:25:59;;;;;;;23.83;14.23;;;6.70;1.00;;;;;;6094960;23;20057;-86
2022/03/29 05:28:46;;;;;;;26.85;14.20;;;6.70;1.00;;;;;;6095960;23;20330;-86
2022/03/29 05:31:33;;;;;;;28.98;14.70;;;6.70;99.90;;;;;;6094348;23;20034;-86
2022/03/29 05:34:23;;;;;;;27.83;15.10;;;6.70;58.70;;;;;;6073785;23;20018;-86
2022/03/29 05:37:10;;;;;;;25.20;14.20;;;6.60;1.00;;;;;;6077333;23;20071;-86
2022/03/29 05:40:28;;;;;;;24.95;14.75;;;6.60;1.00;;;;;;6089286;23;20034;-86
2022/03/29 05:43:17;;;;;;;26.75;14.27;;;6.60;1.00;;;;;;6093138;23;20449;-83
2022/03/29 05:49:11;;;;;;;27.75;13.75;;;6.70;1.00;;;;;;6092311;23;20026;-85
2022/03/29 05:51:59;;;;;;;32.28;15.05;;;6.70;1.00;;;;;;6094002;23;20445;-84
2022/03/29 05:54:47;;;;;;;23.77;12.63;;;6.80;1.00;;;;;;6102600;23;20036;-85
2022/03/29 05:57:35;;;;;;;29.63;14.32;;;6.80;1.00;;;;;;6105195;23;20118;-84
2022/03/29 06:00:23;;;;;;;26.30;14.30;;;6.90;1.00;;;;;;6081511;23;20037;-83
2022/03/29 06:03:10;;;;;;;25.00;14.77;;;7.00;1.00;;;;;;6111740;22;20030;-85
2022/03/29 06:05:58;;;;;;;29.38;14.52;;;7.10;1.00;;;;;;6114163;22;20033;-81
2022/03/29 06:08:48;;;;;;;29.60;14.85;;;7.10;1.00;;;;;;6104852;23;20037;-83
2022/03/29 06:11:35;;;;;;;30.98;14.27;;;7.10;1.00;;;;;;6106707;23;20042;-85
2022/03/29 06:14:29;;;;;;;25.55;13.95;;;7.10;1.00;;;;;;6105856;23;20027;-86
2022/03/29 06:17:17;;;;;;;26.90;14.60;;;7.10;1.00;;;;;;6083004;23;20026;-85
2022/03/29 06:20:06;;;;;;;25.45;14.68;;;7.10;1.00;;;;;;6079811;23;20041;-84
2022/03/29 06:22:54;;;;;;;27.90;14.73;;;7.20;1.00;;;;;;6074389;23;20057;-86
2022/03/29 06:25:41;;;;;;;31.33;14.93;;;7.40;1.00;;;;;;6092521;23;20038;-85
2022/03/29 06:28:29;;;;;;;30.42;13.40;;;7.40;1.00;;;;;;6096294;23;20022;-88
2022/03/29 06:31:17;;;;;;;34.50;14.82;;;7.60;1.00;;;;;;6078592;23;20031;-83
2022/03/29 06:34:05;;;;;;;30.98;15.25;;;7.80;99.90;;;;;;6100336;23;20077;-85
2022/03/29 06:36:56;;;;;;;28.00;13.65;;;7.90;1.00;;;;;;6075738;23;20383;-87
2022/03/29 06:39:43;;;;;;;26.25;13.57;;;8.00;1.00;;;;;;6071696;23;20391;-86
2022/03/29 06:42:35;;;;;;;30.02;12.77;;;8.20;1.00;;;;;;6091530;23;20096;-88
2022/03/29 06:45:26;;;;;;;25.25;13.27;;;8.40;99.90;;;;;;6091884;23;20118;-83
2022/03/29 06:48:13;;;;;;;23.55;12.02;;;8.60;99.90;;;;;;6093836;23;20077;-84
2022/03/29 06:51:01;;;;;;;26.42;12.55;;;8.70;1.00;;;;;;6091206;23;20050;-85
2022/03/29 06:53:52;;;;;;;23.00;12.73;;;9.00;1.00;;;;;;6050770;23;20064;-84
2022/03/29 06:56:40;;;;;;;28.00;13.63;;;9.20;99.90;;;;;;6073517;23;20125;-87
2022/03/29 06:59:27;;;;;;;20.17;12.77;;;9.20;99.90;;;;;;6073277;23;20140;-85
2022/03/29 07:02:34;;;;;;;22.60;12.05;;;9.10;99.90;;;;;;6079253;23;20034;-84
2022/03/29 07:05:30;;;;;;;30.75;14.00;;;9.10;1.00;;;;;;6094439;23;20054;-87
2022/03/29 07:08:18;;;;;;;25.50;13.20;;;9.10;1.00;;;;;;6094008;23;20030;-87
2022/03/29 07:11:21;;;;;;;23.42;13.70;;;9.20;1.00;;;;;;6093986;23;20030;-85
2022/03/29 07:14:12;;;;;;;;;;;9.20;1.00;;;;;;6093658;23;20038;-85
2022/03/29 07:17:08;;;;;;;25.25;13.68;;;9.20;1.00;;;;;;6092084;23;19917;-86
2022/03/29 07:20:04;;;;;;;22.02;14.00;;;9.50;1.00;;;;;;6074238;23;20084;-85
2022/03/29 07:22:56;;;;;;;19.77;12.00;;;9.70;1.00;;;;;;6054703;23;20038;-86
2022/03/29 07:25:49;;;;;;;26.02;14.00;;;10.10;1.00;;;;;;6074439;23;20356;-85
2022/03/29 07:28:37;;;;;;;24.42;13.65;;;10.40;99.90;;;;;;6073840;23;20019;-84
2022/03/29 07:31:26;;;;;;;26.77;12.98;;;10.40;1.00;;;;;;6073183;23;20078;-85
2022/03/29 07:34:14;;;;;;;29.67;13.05;;;10.60;1.00;;;;;;6092559;23;20458;-84
2022/03/29 07:37:05;;;;;;;19.38;12.38;;;10.90;1.00;;;;;;6095224;23;20450;-84
2022/03/29 07:39:55;;;;;;;21.80;12.43;;;11.20;99.90;;;;;;6072543;23;20027;-83
2022/03/29 07:42:44;;;;;;;34.80;14.50;;;11.30;1.00;;;;;;6073242;23;20030;-86
2022/03/29 07:45:34;;;;;;;27.45;12.48;;;11.40;1.00;;;;;;6093228;23;20050;-87
2022/03/29 07:48:27;;;;;;;23.38;12.95;;;11.20;1.00;;;;;;6101286;23;20102;-83
2022/03/29 07:51:52;;;;;;;30.58;14.20;;;11.00;1.00;;;;;;6108580;23;20065;-84
2022/03/29 07:54:47;;;;;;;30.75;14.70;;;11.10;99.90;;;;;;6100513;23;20106;-83
2022/03/29 07:57:35;;;;;;;27.52;13.35;;;11.30;1.00;;;;;;6094073;23;20273;-85
2022/03/29 08:00:33;;;;;;;22.63;12.65;;;11.70;99.90;;;;;;6092172;23;20041;-84
2022/03/29 08:03:27;;;;;;;22.00;13.38;;;12.20;1.00;;;;;;6094924;23;20049;-85
2022/03/29 08:06:24;;;;;;;21.50;12.63;;;12.30;99.90;;;;;;6073519;23;20093;-84
2022/03/29 08:09:15;;;;;;;20.27;11.40;;;12.70;99.90;;;;;;6095840;23;20097;-84
2022/03/29 08:12:03;;;;;;;18.60;10.88;;;12.90;99.90;;;;;;6073943;23;20145;-85
2022/03/29 08:14:55;;;;;;;20.48;12.43;;;13.20;1.00;;;;;;6091044;23;20049;-84
2022/03/29 08:17:45;;;;;;;17.45;10.75;;;13.40;1.00;;;;;;6092027;23;20059;-87
2022/03/29 08:20:39;;;;;;;20.33;11.88;;;13.60;1.00;;;;;;6092559;23;20041;-87
2022/03/29 08:23:28;;;;;;;17.13;11.15;;;13.80;1.00;;;;;;6067460;23;20040;-86
2022/03/29 08:26:16;;;;;;;18.75;10.50;;;13.90;99.90;;;;;;6072078;23;20041;-87
2022/03/29 08:29:04;;;;;;;22.88;11.52;;;13.70;99.90;;;;;;6095449;23;20099;-88
2022/03/29 08:31:53;;;;;;;19.40;11.32;;;13.50;99.90;;;;;;6072598;23;20033;-85
2022/03/29 08:34:41;;;;;;;18.88;10.50;;;13.50;99.90;;;;;;6092564;23;20050;-86
2022/03/29 08:37:30;;;;;;;17.42;11.05;;;13.50;99.90;;;;;;6093254;23;20054;-86
2022/03/29 08:40:26;;;;;;;18.75;10.63;;;13.50;1.00;;;;;;6093200;23;20041;-87
2022/03/29 08:43:21;;;;;;;17.05;10.70;;;13.50;1.00;;;;;;6072829;23;20053;-87
2022/03/29 08:46:38;;;;;;;20.35;10.60;;;13.70;1.00;;;;;;6092887;23;20045;-88
2022/03/29 08:52:47;;;;;;;21.33;10.57;;;15.00;1.00;;;;;;6091315;23;20454;-86
2022/03/29 08:55:41;;;;;;;19.80;11.07;;;15.60;1.00;;;;;;6092560;23;20056;-86
2022/03/29 08:58:28;;;;;;;17.20;10.90;;;15.60;1.00;;;;;;6092593;23;20418;-86
2022/03/29 09:01:19;;;;;;;19.05;11.52;;;15.60;1.00;;;;;;6071865;23;20027;-87
2022/03/29 09:04:19;;;;;;;19.17;11.52;;;15.50;1.00;;;;;;6071572;23;20140;-87
2022/03/29 09:07:15;;;;;;;19.95;12.07;;;15.70;36.60;;;;;;6093063;23;20045;-87
2022/03/29 09:10:12;;;;;;;18.27;11.07;;;16.00;1.00;;;;;;6072247;23;20458;-88
2022/03/29 09:13:30;;;;;;;22.05;11.32;;;16.20;1.00;;;;;;6092598;23;20118;-87
2022/03/29 09:16:52;;;;;;;16.75;9.68;;;16.10;99.90;;;;;;6092573;23;20049;-88
2022/03/29 09:19:55;;;;;;;15.07;10.13;;;16.30;1.00;;;;;;6093742;23;20022;-86
2022/03/29 09:22:58;;;;;;;19.40;10.60;;;16.30;99.90;;;;;;6074694;23;20112;-86
2022/03/29 09:25:54;;;;;;;19.85;9.50;;;16.60;99.90;;;;;;6074716;23;20120;-88
2022/03/29 09:29:15;;;;;;;16.05;9.30;;;16.80;99.90;;;;;;6101612;23;20149;-88
2022/03/29 09:32:22;;;;;;;;;;;17.20;99.90;;;;;;6081803;23;20074;-89
2022/03/29 09:35:25;;;;;;;16.30;10.23;;;17.40;1.00;;;;;;6096714;23;19921;-89
2022/03/29 09:38:42;;;;;;;16.13;9.30;;;16.70;1.00;;;;;;6076197;23;20027;-84
2022/03/29 09:41:40;;;;;;;14.65;9.40;;;16.20;1.00;;;;;;6073635;23;20026;-86
2022/03/29 09:44:35;;;;;;;18.52;10.40;;;16.10;1.00;;;;;;6096614;23;20414;-88
2022/03/29 09:47:26;;;;;;;17.08;9.57;;;16.20;1.00;;;;;;6094482;23;20042;-87
2022/03/29 09:50:16;;;;;;;15.45;9.63;;;16.20;1.00;;;;;;6073557;23;20023;-85
2022/03/29 09:53:04;;;;;;;21.48;10.45;;;16.40;1.00;;;;;;6093266;23;20053;-87
2022/03/29 09:56:02;;;;;;;19.85;10.18;;;16.40;1.00;;;;;;6096305;23;20023;-86
2022/03/29 09:59:10;;;;;;;19.08;10.20;;;16.10;12.10;;;;;;6101224;23;20060;-87
2022/03/29 10:02:00;;;;;;;21.15;10.13;;;16.20;27.90;;;;;;6098649;23;20089;-87
2022/03/29 10:04:50;;;;;;;15.77;9.43;;;16.50;48.70;;;;;;6099381;23;20068;-89
2022/03/29 10:11:24;;;;;;;16.08;8.98;;;16.90;69.10;;;;;;6098695;23;20045;-92
2022/03/29 10:14:12;;;;;;;16.17;9.05;;;17.40;45.70;;;;;;6099559;23;20030;-91
2022/03/29 10:17:03;;;;;;;15.50;9.43;;;18.30;99.90;;;;;;6097652;23;20277;-88
2022/03/29 10:20:01;;;;;;;17.92;8.77;;;19.10;99.90;;;;;;6088710;22;20026;-86
2022/03/29 10:22:48;;;;;;;13.77;8.88;;;19.80;99.90;;;;;;6108008;23;20053;-88
2022/03/29 10:25:38;;;;;;;15.68;8.68;;;19.80;99.90;;;;;;6081797;23;20049;-87
2022/03/29 10:28:27;;;;;;;16.63;8.82;;;19.90;99.90;;;;;;6082716;23;20053;-89
2022/03/29 10:31:36;;;;;;;18.17;9.07;;;19.60;99.90;;;;;;6094625;23;20026;-85
2022/03/29 10:34:50;;;;;;;15.38;8.70;;;18.20;99.90;;;;;;6098749;23;20026;-89
2022/03/29 10:37:53;;;;;;;18.48;9.43;;;17.70;99.90;;;;;;6077953;23;20117;-89
2022/03/29 10:41:03;;;;;;;15.90;9.73;;;17.70;98.80;;;;;;6100104;23;20156;-89
2022/03/29 10:44:01;;;;;;;17.85;9.65;;;17.30;99.90;;;;;;6103597;23;20031;-87
2022/03/29 10:46:51;;;;;;;17.35;10.00;;;17.50;99.90;;;;;;6074661;23;20324;-86
2022/03/29 10:49:48;;;;;;;20.88;9.80;;;17.40;99.90;;;;;;6073540;23;20078;-86
2022/03/29 10:52:46;;;;;;;17.30;9.43;;;17.20;99.90;;;;;;6073586;23;20524;-90
2022/03/29 10:55:34;;;;;;;18.13;9.65;;;17.20;99.90;;;;;;6075555;23;20747;-89
2022/03/29 10:58:23;;;;;;;15.35;9.25;;;17.40;79.30;;;;;;6095437;23;20088;-81
2022/03/29 11:01:16;;;;;;;15.20;8.98;;;17.20;99.40;;;;;;6095677;23;20034;-86
2022/03/29 11:04:20;;;;;;;21.45;9.20;;;17.00;99.90;;;;;;6078484;23;20120;-85
2022/03/29 11:07:14;;;;;;;18.55;9.65;;;17.00;99.90;;;;;;6079210;23;20030;-87
2022/03/29 11:10:20;;;;;;;16.85;9.45;;;16.70;99.90;;;;;;6079574;23;20028;-88
2022/03/29 11:13:26;;;;;;;15.98;9.20;;;16.80;99.90;;;;;;6078759;23;20395;-88
2022/03/29 11:16:30;;;;;;;13.57;8.85;;;17.20;99.90;;;;;;6080525;23;20022;-86
2022/03/29 11:19:53;;;;;;;17.65;9.13;;;17.40;99.90;;;;;;6098671;23;20027;-88
2022/03/29 11:22:44;;;;;;;17.88;9.25;;;17.30;19.20;;;;;;6077638;23;20030;-86
2022/03/29 11:25:39;;;;;;;18.10;8.88;;;17.40;1.00;;;;;;6080322;23;20042;-87
2022/03/29 11:28:26;;;;;;;14.38;8.93;;;17.70;94.80;;;;;;6101918;23;20434;-86
2022/03/29 11:31:19;;;;;;;18.52;9.02;;;18.00;59.10;;;;;;6075033;23;20105;-87
2022/03/29 11:34:11;;;;;;;18.48;8.85;;;17.60;99.90;;;;;;6094139;23;20113;-86
2022/03/29 11:36:59;;;;;;;13.43;8.43;;;17.50;99.90;;;;;;6071400;23;20037;-87
2022/03/29 11:39:50;;;;;;;13.23;8.90;;;17.70;99.90;;;;;;6094445;23;20345;-84
2022/03/29 11:42:55;;;;;;;14.27;9.18;;;17.40;99.90;;;;;;6092853;23;20057;-87
2022/03/29 11:45:48;;;;;;;19.77;9.57;;;17.60;99.90;;;;;;6085981;23;20091;-89
2022/03/29 11:48:51;;;;;;;24.70;9.37;;;17.70;99.90;;;;;;6089902;23;20102;-88
2022/03/29 11:52:14;;;;;;;12.80;9.07;;;17.30;99.90;;;;;;6072612;23;20090;-87
2022/03/29 11:55:18;;;;;;;17.20;9.52;;;17.50;99.90;;;;;;6109483;22;20052;-89
2022/03/29 11:58:31;;;;;;;24.40;10.10;;;17.30;99.90;;;;;;6077321;23;20030;-86
2022/03/29 12:01:27;;;;;;;14.40;9.50;;;16.80;99.90;;;;;;6077142;23;20037;-88
2022/03/29 12:04:23;;;;;;;26.77;10.32;;;16.70;99.90;;;;;;6079731;23;20031;-89
2022/03/29 12:07:11;;;;;;;18.13;9.82;;;17.00;99.90;;;;;;6102120;23;20097;-88
2022/03/29 12:09:59;;;;;;;21.90;10.25;;;16.90;99.90;;;;;;6073862;23;20098;-86
2022/03/29 12:12:52;;;;;;;17.27;9.63;;;16.90;99.90;;;;;;6071472;23;20030;-86
2022/03/29 12:15:44;;;;;;;23.35;10.10;;;17.30;99.90;;;;;;6096241;23;20028;-86
2022/03/29 12:18:41;;;;;;;20.73;10.60;;;17.60;99.90;;;;;;6098082;23;20121;-88
2022/03/29 12:21:28;;;;;;;19.73;10.23;;;17.20;99.90;;;;;;6099914;23;20038;-88
2022/03/29 12:24:17;;;;;;;15.60;10.43;;;17.00;99.90;;;;;;6108575;23;20026;-86
2022/03/29 12:27:10;;;;;;;17.20;9.57;;;17.10;99.90;;;;;;6076954;23;20031;-88
2022/03/29 12:30:04;;;;;;;20.65;10.32;;;17.30;99.90;;;;;;6080386;23;20386;-87
2022/03/29 12:32:55;;;;;;;18.50;9.65;;;17.50;99.90;;;;;;6061328;23;20362;-88
2022/03/29 12:36:04;;;;;;;20.33;9.90;;;17.50;99.90;;;;;;6086377;23;20026;-87
2022/03/29 12:38:55;;;;;;;23.05;10.32;;;17.60;99.90;;;;;;6098659;23;20023;-86
2022/03/29 12:41:51;;;;;;;16.73;10.88;;;17.70;1.00;;;;;;6096089;23;20026;-87
2022/03/29 12:44:48;;;;;;;20.38;9.50;;;17.60;99.90;;;;;;6077781;23;20601;-87
2022/03/29 12:47:40;;;;;;;20.35;9.65;;;17.50;99.90;;;;;;6073262;23;20037;-85
2022/03/29 12:50:31;;;;;;;18.65;9.95;;;17.40;1.00;;;;;;6072042;23;20037;-88
2022/03/29 12:53:23;;;;;;;12.75;9.23;;;17.50;1.00;;;;;;6074084;23;20037;-89
2022/03/29 12:56:37;;;;;;;17.35;10.02;;;17.80;1.00;;;;;;6101449;23;20078;-90
2022/03/29 12:59:50;;;;;;;15.23;9.40;;;18.20;1.00;;;;;;6090998;23;20026;-87
2022/03/29 13:03:36;;;;;;;;;;;;;;;;;;;;;
2022/03/29 13:07:24;;;;;;;;;;;;;;;;;;;;;
2022/03/29 13:10:46;;;;;;;15.00;8.95;;;18.80;99.90;;;;;;6131773;23;20025;-89
2022/03/29 13:14:14;;;;;;;16.83;8.95;;;19.30;99.90;;;;;;6110167;23;20022;-87
2022/03/29 13:17:02;;;;;;;19.38;8.65;;;19.90;99.90;;;;;;6126339;23;20030;-85
2022/03/29 13:19:55;;;;;;;22.20;9.10;;;20.10;99.90;;;;;;6103784;23;20106;-85
2022/03/29 13:22:58;;;;;;;19.33;8.30;;;20.50;99.90;;;;;;6108138;23;20022;-87
2022/03/29 13:26:16;;;;;;;15.70;8.57;;;20.00;99.90;;;;;;6110058;23;20288;-88
2022/03/29 13:29:27;;;;;;;20.23;8.18;;;19.60;99.90;;;;;;6126439;23;20066;-85
2022/03/29 13:32:44;;;;;;;16.55;7.97;;;19.40;46.90;;;;;;6127195;23;20052;-88
2022/03/29 13:52:41;;;;;;;23.60;7.80;;;19.50;1.00;;;;;;6264936;22;20024;-88
2022/03/29 13:55:59;;;;;;;24.88;8.20;;;19.30;1.00;;;;;;6260935;23;20024;-89
2022/03/29 13:58:47;;;;;;;25.95;8.10;;;19.10;1.00;;;;;;6254936;23;20423;-84
2022/03/29 14:02:04;;;;;;;24.15;8.25;;;18.90;1.00;;;;;;6197969;23;20036;-85
2022/03/29 14:05:06;;;;;;;28.23;8.63;;;18.30;52.70;;;;;;6190838;23;20083;-88
2022/03/29 14:07:59;;;;;;;25.88;8.05;;;18.20;5.30;;;;;;6187903;23;20432;-86
2022/03/29 14:10:49;;;;;;;21.52;8.65;;;18.20;21.00;;;;;;6191193;23;20495;-86
2022/03/29 14:13:44;;;;;;;26.95;7.53;;;18.50;23.10;;;;;;6194641;23;20120;-87
2022/03/29 14:16:32;;;;;;;27.50;8.10;;;18.50;84.50;;;;;;6200783;23;20036;-84
2022/03/29 14:19:20;;;;;;;30.08;8.35;;;18.30;93.60;;;;;;6258837;22;20119;-84
2022/03/29 14:22:32;;;;;;;29.52;8.20;;;18.10;95.70;;;;;;6252280;23;20031;-85
2022/03/29 14:25:33;;;;;;;25.60;8.32;;;17.70;12.80;;;;;;6264164;23;20095;-86
2022/03/29 14:28:24;;;;;;;26.10;8.82;;;17.60;1.00;;;;;;6265306;22;20034;-85
2022/03/29 14:31:12;;;;;;;32.00;7.72;;;17.50;38.70;;;;;;6265060;22;20058;-84
2022/03/29 14:34:06;;;;;;;27.80;8.60;;;17.30;32.60;;;;;;6262551;23;20024;-85
2022/03/29 14:36:53;;;;;;;27.67;7.85;;;17.30;24.30;;;;;;6263515;23;20390;-86
2022/03/29 14:39:41;;;;;;;29.58;8.48;;;17.30;74.80;;;;;;6259406;23;20133;-85
2022/03/29 14:42:32;;;;;;;31.90;7.82;;;17.10;1.00;;;;;;6245701;23;20032;-87
2022/03/29 14:45:27;;;;;;;32.35;8.45;;;17.10;1.00;;;;;;6248197;23;20040;-89
2022/03/29 14:48:18;;;;;;;35.10;8.53;;;17.10;1.00;;;;;;6248405;22;20070;-85
2022/03/29 14:51:29;;;;;;;20.10;8.32;;;17.00;1.00;;;;;;6251107;23;20178;-84
2022/03/29 14:54:17;;;;;;;21.63;7.63;;;16.80;1.00;;;;;;6249320;23;20699;-89
2022/03/29 14:57:09;;;;;;;32.47;8.23;;;16.40;1.00;;;;;;6251846;23;20071;-86
2022/03/29 14:59:59;;;;;;;25.95;8.00;;;16.30;1.00;;;;;;6254156;22;20020;-89
2022/03/29 15:02:51;;;;;;;34.97;8.73;;;16.20;1.00;;;;;;6251245;22;20084;-89
2022/03/29 15:05:40;;;;;;;35.97;8.77;;;16.20;1.00;;;;;;6252346;23;20498;-84
2022/03/29 15:08:27;;;;;;;34.25;8.43;;;16.20;1.00;;;;;;6248593;23;20044;-88
2022/03/29 15:11:17;;;;;;;28.02;8.25;;;16.20;1.00;;;;;;6244143;23;20104;-83
2022/03/29 15:14:04;;;;;;;26.65;7.88;;;16.40;1.00;;;;;;6257784;23;20095;-84
2022/03/29 15:16:51;;;;;;;32.40;7.63;;;16.50;1.00;;;;;;6257463;23;20084;-85
2022/03/29 15:19:41;;;;;;;28.70;7.78;;;16.50;1.00;;;;;;6250471;22;20033;-87
2022/03/29 15:22:33;;;;;;;34.00;8.50;;;16.30;1.00;;;;;;6258504;23;20086;-83
2022/03/29 15:25:26;;;;;;;35.85;7.65;;;16.20;1.00;;;;;;6244835;23;20016;-84
2022/03/29 15:28:18;;;;;;;36.17;8.38;;;16.10;1.00;;;;;;6246815;23;20024;-83